Time;durP1;ratioP1;P1;durP2;ratioP2;P2;SDS_P1;SDS_P2;PMS_P1;PMS_P2;Temp;Humidity;BMP_temperature;BMP_pressure;BME280_temperature;BME280_humidity;BME280_pressure;Samples;Min_cycle;Max_cycle;Signal;HPM_P1;HPM_P2
2023/03/06 00:01:12;;;;;;;;;;;;;;;;;;5041682;28;19962;-83
2023/03/06 00:03:59;;;;;;;;;;;;;;;;;;5063362;28;19919;-83
2023/03/06 00:06:45;;;;;;;;;;;;;;;;;;5048122;28;19929;-82
2023/03/06 00:09:31;;;;;;;;;;;;;;;;;;5039556;28;19923;-83
2023/03/06 00:12:18;;;;;;;;;;;;;;;;;;5036028;28;19921;-82
2023/03/06 00:15:04;;;;;;;;;;;;;;;;;;5056177;28;19932;-82
2023/03/06 00:17:51;;;;;;;;;;;;;;;;;;5027143;28;19917;-84
2023/03/06 00:20:37;;;;;;;;;;;;;;;;;;5033288;28;20274;-83
2023/03/06 00:23:24;;;;;;;;;;;;;;;;;;5034361;28;19912;-83
2023/03/06 00:26:11;;;;;;;;;;;;;;;;;;5042056;28;19967;-83
2023/03/06 00:28:57;;;;;;;;;;;;;;;;;;5030007;28;20773;-82
2023/03/06 00:31:46;;;;;;;;;;;;;;;;;;5040656;28;19921;-82
2023/03/06 00:34:33;;;;;;;;;;;;;;;;;;5054045;28;20250;-82
2023/03/06 00:37:19;;;;;;;;;;;;;;;;;;5040750;28;19923;-83
2023/03/06 00:40:06;;;;;;;;;;;;;;;;;;5037851;28;19927;-82
2023/03/06 00:42:52;;;;;;;;;;;;;;;;;;5040679;28;20264;-83
2023/03/06 00:45:38;;;;;;;;;;;;;;;;;;5036379;28;19921;-83
2023/03/06 00:48:25;;;;;;;;;;;;;;;;;;5041546;28;19921;-83
2023/03/06 00:51:11;;;;;;;;;;;;;;;;;;5052564;28;19924;-83
2023/03/06 00:53:58;;;;;;;;;;;;;;;;;;5044385;28;20000;-83
2023/03/06 00:56:44;;;;;;;;;;;;;;;;;;5031649;28;19921;-83
2023/03/06 00:59:31;;;;;;;;;;;;;;;;;;5020389;28;19918;-84
2023/03/06 01:02:17;;;;;;;;;;;;;;;;;;5047978;28;19917;-83
2023/03/06 01:05:04;;;;;;;;;;;;;;;;;;5043613;28;19928;-83
2023/03/06 01:07:50;;;;;;;;;;;;;;;;;;5032224;28;20031;-83
2023/03/06 01:10:37;;;;;;;;;;;;;;;;;;5061119;28;19924;-84
2023/03/06 01:13:23;;;;;;;;;;;;;;;;;;5036550;28;19936;-84
2023/03/06 01:16:10;;;;;;;;;;;;;;;;;;5059947;28;19928;-84
2023/03/06 01:18:56;;;;;;;;;;;;;;;;;;5053838;28;19913;-83
2023/03/06 01:21:43;;;;;;;;;;;;;;;;;;5065607;28;19947;-83
2023/03/06 01:24:29;;;;;;;;;;;;;;;;;;5065050;28;19919;-82
2023/03/06 01:27:15;;;;;;;;;;;;;;;;;;5062800;28;19934;-82
2023/03/06 01:30:02;;;;;;;;;;;;;;;;;;5066166;28;20281;-82
2023/03/06 01:32:48;;;;;;;;;;;;;;;;;;5048263;28;19932;-83
2023/03/06 01:35:35;;;;;;;;;;;;;;;;;;5066074;28;19917;-83
2023/03/06 01:38:21;;;;;;;;;;;;;;;;;;5050619;28;19924;-83
2023/03/06 01:41:09;;;;;;;;;;;;;;;;;;5067100;28;19912;-83
2023/03/06 01:43:56;;;;;;;;;;;;;;;;;;5052163;28;19923;-82
2023/03/06 01:46:42;;;;;;;;;;;;;;;;;;5058964;28;19921;-83
2023/03/06 01:49:29;;;;;;;;;;;;;;;;;;5047967;28;19932;-84
2023/03/06 01:52:15;;;;;;;;;;;;;;;;;;5067627;28;19921;-84
2023/03/06 01:55:02;;;;;;;;;;;;;;;;;;5058903;28;19921;-83
2023/03/06 01:57:49;;;;;;;;;;;;;;;;;;5051010;28;19924;-84
2023/03/06 02:00:36;;;;;;;;;;;;;;;;;;5049028;28;19967;-84
2023/03/06 02:03:22;;;;;;;;;;;;;;;;;;5065121;28;19916;-83
2023/03/06 02:06:09;;;;;;;;;;;;;;;;;;5047366;28;19917;-83
2023/03/06 02:08:55;;;;;;;;;;;;;;;;;;5056117;28;19928;-83
2023/03/06 02:11:43;;;;;;;;;;;;;;;;;;5043638;28;19942;-83
2023/03/06 02:14:29;;;;;;;;;;;;;;;;;;5059063;28;19932;-84
2023/03/06 02:17:15;;;;;;;;;;;;;;;;;;5032044;28;20419;-81
2023/03/06 02:20:02;;;;;;;;;;;;;;;;;;5020214;28;19927;-83
2023/03/06 02:22:49;;;;;;;;;;;;;;;;;;5042682;28;20380;-84
2023/03/06 02:25:35;;;;;;;;;;;;;;;;;;5037186;28;19924;-83
2023/03/06 02:28:22;;;;;;;;;;;;;;;;;;5046277;28;19925;-83
2023/03/06 02:31:08;;;;;;;;;;;;;;;;;;5043403;28;19917;-84
2023/03/06 02:33:54;;;;;;;;;;;;;;;;;;5051537;28;19913;-82
2023/03/06 02:36:41;;;;;;;;;;;;;;;;;;5035988;28;19932;-83
2023/03/06 02:39:27;;;;;;;;;;;;;;;;;;5045109;28;20562;-84
2023/03/06 02:42:14;;;;;;;;;;;;;;;;;;5040795;28;19925;-84
2023/03/06 02:45:01;;;;;;;;;;;;;;;;;;5041887;28;19925;-82
2023/03/06 02:47:47;;;;;;;;;;;;;;;;;;5026869;28;19929;-84
2023/03/06 02:50:33;;;;;;;;;;;;;;;;;;5030946;28;20371;-82
2023/03/06 02:53:20;;;;;;;;;;;;;;;;;;5038998;28;19923;-84
2023/03/06 02:56:06;;;;;;;;;;;;;;;;;;5042032;28;20488;-83
2023/03/06 02:58:53;;;;;;;;;;;;;;;;;;5027690;28;19924;-83
2023/03/06 03:01:39;;;;;;;;;;;;;;;;;;5028689;28;19959;-84
2023/03/06 03:04:26;;;;;;;;;;;;;;;;;;5032349;28;19917;-85
2023/03/06 03:07:12;;;;;;;;;;;;;;;;;;5044078;28;19921;-84
2023/03/06 03:09:59;;;;;;;;;;;;;;;;;;5044282;28;19924;-83
2023/03/06 03:12:45;;;;;;;;;;;;;;;;;;5047974;28;19921;-85
2023/03/06 03:15:32;;;;;;;;;;;;;;;;;;5051189;28;19939;-85
2023/03/06 03:18:18;;;;;;;;;;;;;;;;;;5063896;28;19924;-84
2023/03/06 03:21:05;;;;;;;;;;;;;;;;;;5068411;28;19917;-84
2023/03/06 03:23:51;;;;;;;;;;;;;;;;;;5056295;28;20579;-85
2023/03/06 03:26:38;;;;;;;;;;;;;;;;;;5058008;28;19932;-84
2023/03/06 03:29:24;;;;;;;;;;;;;;;;;;5067869;28;19921;-84
2023/03/06 03:32:11;;;;;;;;;;;;;;;;;;5078338;28;20322;-84
2023/03/06 03:34:57;;;;;;;;;;;;;;;;;;5059470;28;19921;-84
2023/03/06 03:37:44;;;;;;;;;;;;;;;;;;5060278;28;19913;-84
2023/03/06 03:40:30;;;;;;;;;;;;;;;;;;5051992;28;19923;-84
2023/03/06 03:43:17;;;;;;;;;;;;;;;;;;5052362;28;19917;-84
2023/03/06 03:46:04;;;;;;;;;;;;;;;;;;5058812;28;19920;-83
2023/03/06 03:48:51;;;;;;;;;;;;;;;;;;5054672;28;19925;-84
2023/03/06 03:51:37;;;;;;;;;;;;;;;;;;5071709;28;19922;-84
2023/03/06 03:54:24;;;;;;;;;;;;;;;;;;5066785;28;20394;-84
2023/03/06 03:57:10;;;;;;;;;;;;;;;;;;5070685;28;19943;-84
2023/03/06 03:59:57;;;;;;;;;;;;;;;;;;5061908;28;20023;-83
2023/03/06 04:02:43;;;;;;;;;;;;;;;;;;5069713;28;19916;-84
2023/03/06 04:05:32;;;;;;;;;;;;;;;;;;5058478;28;19913;-85
2023/03/06 04:08:18;;;;;;;;;;;;;;;;;;5057184;28;19925;-84
2023/03/06 04:11:04;;;;;;;;;;;;;;;;;;5066619;28;19913;-84
2023/03/06 04:13:51;;;;;;;;;;;;;;;;;;5068741;28;19927;-83
2023/03/06 04:16:37;;;;;;;;;;;;;;;;;;5071867;28;19928;-82
2023/03/06 04:19:24;;;;;;;;;;;;;;;;;;5022699;28;19921;-83
2023/03/06 04:22:12;;;;;;;;;;;;;;;;;;5061826;28;20073;-83
2023/03/06 04:24:59;;;;;;;;;;;;;;;;;;5064045;28;19936;-82
2023/03/06 04:27:45;;;;;;;;;;;;;;;;;;5061449;28;19943;-83
2023/03/06 04:30:32;;;;;;;;;;;;;;;;;;5053963;28;19940;-83
2023/03/06 04:33:18;;;;;;;;;;;;;;;;;;5045946;28;19921;-83
2023/03/06 04:36:04;;;;;;;;;;;;;;;;;;5059505;28;19916;-82
2023/03/06 04:38:51;;;;;;;;;;;;;;;;;;5056674;28;19923;-82
2023/03/06 04:41:37;;;;;;;;;;;;;;;;;;5064912;28;19927;-83
2023/03/06 04:44:24;;;;;;;;;;;;;;;;;;5051821;28;19920;-84
2023/03/06 04:47:10;;;;;;;;;;;;;;;;;;5057246;28;19921;-84
2023/03/06 04:49:57;;;;;;;;;;;;;;;;;;5045547;28;20290;-87
2023/03/06 04:52:43;;;;;;;;;;;;;;;;;;5058824;28;19928;-87
2023/03/06 04:55:30;;;;;;;;;;;;;;;;;;5039101;28;19925;-85
2023/03/06 04:58:16;;;;;;;;;;;;;;;;;;5054445;28;19920;-85
2023/03/06 05:01:03;;;;;;;;;;;;;;;;;;5053322;28;19928;-87
2023/03/06 05:03:49;;;;;;;;;;;;;;;;;;5060492;28;19922;-88
2023/03/06 05:06:36;;;;;;;;;;;;;;;;;;5060186;28;19927;-88
2023/03/06 05:09:22;;;;;;;;;;;;;;;;;;5039736;28;19917;-86
2023/03/06 05:12:09;;;;;;;;;;;;;;;;;;5056226;28;20266;-85
2023/03/06 05:14:55;;;;;;;;;;;;;;;;;;5057106;28;19927;-85
2023/03/06 05:17:42;;;;;;;;;;;;;;;;;;5055651;28;19932;-84
2023/03/06 05:20:28;;;;;;;;;;;;;;;;;;5057244;28;19931;-80
2023/03/06 05:23:15;;;;;;;;;;;;;;;;;;5070706;28;20456;-82
2023/03/06 05:26:01;;;;;;;;;;;;;;;;;;5050386;28;19917;-81
2023/03/06 05:28:47;;;;;;;;;;;;;;;;;;5058885;28;19928;-81
2023/03/06 05:31:34;;;;;;;;;;;;;;;;;;5049702;28;19916;-83
2023/03/06 05:34:20;;;;;;;;;;;;;;;;;;5057791;28;19928;-84
2023/03/06 05:37:07;;;;;;;;;;;;;;;;;;5053976;28;19943;-83
2023/03/06 05:39:53;;;;;;;;;;;;;;;;;;5050555;28;19917;-83
2023/03/06 05:42:40;;;;;;;;;;;;;;;;;;5059440;28;19930;-84
2023/03/06 05:45:26;;;;;;;;;;;;;;;;;;5064359;28;19916;-84
2023/03/06 05:48:13;;;;;;;;;;;;;;;;;;5059000;28;19932;-83
2023/03/06 05:50:59;;;;;;;;;;;;;;;;;;5063145;28;19913;-84
2023/03/06 05:53:46;;;;;;;;;;;;;;;;;;5039582;28;19921;-83
2023/03/06 05:56:32;;;;;;;;;;;;;;;;;;5058401;28;19921;-84
2023/03/06 05:59:19;;;;;;;;;;;;;;;;;;5057921;28;19920;-83
2023/03/06 06:02:05;;;;;;;;;;;;;;;;;;5046306;28;19920;-83
2023/03/06 06:04:52;;;;;;;;;;;;;;;;;;5067639;28;19921;-83
2023/03/06 06:07:38;;;;;;;;;;;;;;;;;;5071865;28;19929;-82
2023/03/06 06:10:25;;;;;;;;;;;;;;;;;;5039013;28;19916;-81
2023/03/06 06:13:11;;;;;;;;;;;;;;;;;;5052147;28;19928;-82
2023/03/06 06:15:58;;;;;;;;;;;;;;;;;;5047683;28;19925;-82
2023/03/06 06:18:44;;;;;;;;;;;;;;;;;;5053262;28;20012;-83
2023/03/06 06:21:31;;;;;;;;;;;;;;;;;;5038322;28;19932;-83
2023/03/06 06:24:17;;;;;;;;;;;;;;;;;;5043985;28;19927;-81
2023/03/06 06:27:04;;;;;;;;;;;;;;;;;;5058354;28;19931;-82
2023/03/06 06:29:51;;;;;;;;;;;;;;;;;;5056461;28;19924;-81
2023/03/06 06:32:37;;;;;;;;;;;;;;;;;;5059060;28;19927;-82
2023/03/06 06:35:24;;;;;;;;;;;;;;;;;;5038386;28;19920;-82
2023/03/06 06:38:10;;;;;;;;;;;;;;;;;;5036053;28;20025;-81
2023/03/06 06:40:57;;;;;;;;;;;;;;;;;;5035376;28;19925;-81
2023/03/06 06:43:43;;;;;;;;;;;;;;;;;;5033546;28;20457;-81
2023/03/06 06:46:30;;;;;;;;;;;;;;;;;;5017415;28;19920;-82
2023/03/06 06:49:16;;;;;;;;;;;;;;;;;;5017609;28;19935;-80
2023/03/06 06:52:03;;;;;;;;;;;;;;;;;;5029666;28;19925;-80
2023/03/06 06:54:49;;;;;;;;;;;;;;;;;;5055423;28;19924;-80
2023/03/06 06:57:35;;;;;;;;;;;;;;;;;;5039371;28;19932;-81
2023/03/06 07:00:22;;;;;;;;;;;;;;;;;;5034621;28;20404;-82
2023/03/06 07:03:08;;;;;;;;;;;;;;;;;;5045283;28;19921;-81
2023/03/06 07:05:55;;;;;;;;;;;;;;;;;;5037917;28;19924;-80
2023/03/06 07:08:41;;;;;;;;;;;;;;;;;;5032221;28;19928;-81
2023/03/06 07:11:28;;;;;;;;;;;;;;;;;;5035479;28;19931;-82
2023/03/06 07:14:14;;;;;;;;;;;;;;;;;;5047887;28;20427;-81
2023/03/06 07:17:01;;;;;;;;;;;;;;;;;;5059702;28;20022;-81
2023/03/06 07:19:47;;;;;;;;;;;;;;;;;;5063282;28;19920;-81
2023/03/06 07:22:34;;;;;;;;;;;;;;;;;;5060430;28;19916;-80
2023/03/06 07:25:21;;;;;;;;;;;;;;;;;;5052598;28;19923;-82
2023/03/06 07:28:07;;;;;;;;;;;;;;;;;;5056408;28;20358;-83
2023/03/06 07:30:54;;;;;;;;;;;;;;;;;;5068698;28;19916;-79
2023/03/06 07:33:40;;;;;;;;;;;;;;;;;;5059600;28;19916;-81
2023/03/06 07:36:27;;;;;;;;;;;;;;;;;;5068571;28;19925;-82
2023/03/06 07:39:13;;;;;;;;;;;;;;;;;;5049812;28;19921;-81
2023/03/06 07:42:00;;;;;;;;;;;;;;;;;;5058459;28;19929;-81
2023/03/06 07:44:46;;;;;;;;;;;;;;;;;;5060128;28;20581;-81
2023/03/06 07:47:33;;;;;;;;;;;;;;;;;;5064680;28;19935;-81
2023/03/06 07:50:19;;;;;;;;;;;;;;;;;;5062483;28;20284;-82
2023/03/06 07:53:06;;;;;;;;;;;;;;;;;;5061994;28;19927;-82
2023/03/06 07:55:52;;;;;;;;;;;;;;;;;;5062622;28;20552;-81
2023/03/06 07:58:39;;;;;;;;;;;;;;;;;;5052906;28;22030;-82
2023/03/06 08:01:28;;;;;;;;;;;;;;;;;;5049252;28;19928;-82
2023/03/06 08:04:15;;;;;;;;;;;;;;;;;;5053013;28;20285;-81
2023/03/06 08:07:02;;;;;;;;;;;;;;;;;;5058213;28;19959;-81
2023/03/06 08:09:48;;;;;;;;;;;;;;;;;;5061920;28;20511;-80
2023/03/06 08:12:35;;;;;;;;;;;;;;;;;;5059023;28;19926;-81
2023/03/06 08:15:21;;;;;;;;;;;;;;;;;;5060177;28;19925;-82
2023/03/06 08:18:08;;;;;;;;;;;;;;;;;;5056536;28;19925;-81
2023/03/06 08:20:54;;;;;;;;;;;;;;;;;;5053517;28;19940;-79
2023/03/06 08:23:41;;;;;;;;;;;;;;;;;;5064045;28;20264;-81
2023/03/06 08:26:27;;;;;;;;;;;;;;;;;;5060340;28;19935;-82
2023/03/06 08:29:14;;;;;;;;;;;;;;;;;;5051845;28;21916;-80
2023/03/06 08:32:00;;;;;;;;;;;;;;;;;;5057030;28;19923;-80
2023/03/06 08:34:47;;;;;;;;;;;;;;;;;;5061157;28;19927;-80
2023/03/06 08:37:33;;;;;;;;;;;;;;;;;;5061172;28;19927;-80
2023/03/06 08:40:22;;;;;;;;;;;;;;;;;;5069299;28;19920;-83
2023/03/06 08:43:08;;;;;;;;;;;;;;;;;;5055521;28;19946;-82
2023/03/06 08:45:55;;;;;;;;;;;;;;;;;;5052845;28;19917;-79
2023/03/06 08:48:41;;;;;;;;;;;;;;;;;;5057105;28;19925;-80
2023/03/06 08:51:28;;;;;;;;;;;;;;;;;;5054224;28;19917;-80
2023/03/06 08:54:14;;;;;;;;;;;;;;;;;;5057335;28;20800;-80
2023/03/06 08:57:01;;;;;;;;;;;;;;;;;;5058601;28;19920;-79
2023/03/06 08:59:47;;;;;;;;;;;;;;;;;;5058763;28;19930;-80
2023/03/06 09:02:34;;;;;;;;;;;;;;;;;;5048704;28;19916;-81
2023/03/06 09:05:20;;;;;;;;;;;;;;;;;;5049931;28;19928;-81
2023/03/06 09:08:07;;;;;;;;;;;;;;;;;;5056883;28;19939;-82
2023/03/06 09:10:53;;;;;;;;;;;;;;;;;;5069324;28;20398;-81
2023/03/06 09:13:40;;;;;;;;;;;;;;;;;;5061401;28;19917;-81
2023/03/06 09:16:26;;;;;;;;;;;;;;;;;;5061637;28;19925;-81
2023/03/06 09:19:13;;;;;;;;;;;;;;;;;;5050619;28;19921;-82
2023/03/06 09:21:59;;;;;;;;;;;;;;;;;;5067991;28;19917;-81
2023/03/06 09:24:46;;;;;;;;;;;;;;;;;;5064217;28;19921;-82
2023/03/06 09:27:32;;;;;;;;;;;;;;;;;;5042712;28;19924;-81
2023/03/06 09:30:19;;;;;;;;;;;;;;;;;;5061969;28;19928;-81
2023/03/06 09:33:05;;;;;;;;;;;;;;;;;;5067116;28;20360;-82
2023/03/06 09:35:52;;;;;;;;;;;;;;;;;;5062904;28;19923;-81
2023/03/06 09:38:38;;;;;;;;;;;;;;;;;;5063879;28;19920;-81
2023/03/06 09:41:25;;;;;;;;;;;;;;;;;;5084371;28;20391;-81
2023/03/06 09:44:13;;;;;;;;;;;;;;;;;;5067580;28;20212;-82
2023/03/06 09:46:59;;;;;;;;;;;;;;;;;;5050288;28;20713;-81
2023/03/06 09:49:46;;;;;;;;;;;;;;;;;;5056865;28;19920;-82
2023/03/06 09:52:32;;;;;;;;;;;;;;;;;;5058511;28;19916;-82
2023/03/06 09:55:19;;;;;;;;;;;;;;;;;;5066156;28;19921;-81
2023/03/06 09:58:05;;;;;;;;;;;;;;;;;;5058645;28;19917;-82
2023/03/06 10:00:52;;;;;;;;;;;;;;;;;;5045018;28;19928;-81
2023/03/06 10:03:38;;;;;;;;;;;;;;;;;;5034002;28;19921;-81
2023/03/06 10:06:25;;;;;;;;;;;;;;;;;;5043190;28;19917;-82
2023/03/06 10:09:11;;;;;;;;;;;;;;;;;;5040545;28;19921;-81
2023/03/06 10:11:58;;;;;;;;;;;;;;;;;;5043566;28;19917;-80
2023/03/06 10:14:44;;;;;;;;;;;;;;;;;;5042402;28;19921;-83
2023/03/06 10:17:31;;;;;;;;;;;;;;;;;;5042688;28;19920;-80
2023/03/06 10:20:17;;;;;;;;;;;;;;;;;;5038415;28;19921;-82
2023/03/06 10:23:04;;;;;;;;;;;;;;;;;;5043085;28;19947;-82
2023/03/06 10:25:50;;;;;;;;;;;;;;;;;;5051560;28;19923;-82
2023/03/06 10:28:37;;;;;;;;;;;;;;;;;;5042611;28;19932;-82
2023/03/06 10:31:23;;;;;;;;;;;;;;;;;;5051750;28;19916;-81
2023/03/06 10:34:10;;;;;;;;;;;;;;;;;;5039049;28;19921;-82
2023/03/06 10:36:56;;;;;;;;;;;;;;;;;;5038171;28;19927;-82
2023/03/06 10:39:43;;;;;;;;;;;;;;;;;;5038101;28;19928;-80
2023/03/06 10:42:29;;;;;;;;;;;;;;;;;;5037409;28;19913;-81
2023/03/06 10:45:16;;;;;;;;;;;;;;;;;;5036301;28;19943;-80
2023/03/06 10:48:02;;;;;;;;;;;;;;;;;;5036327;28;19932;-83
2023/03/06 10:50:49;;;;;;;;;;;;;;;;;;5033466;28;20008;-81
2023/03/06 10:53:35;;;;;;;;;;;;;;;;;;5041153;28;19919;-81
2023/03/06 10:56:22;;;;;;;;;;;;;;;;;;5064021;28;19921;-80
2023/03/06 10:59:08;;;;;;;;;;;;;;;;;;5042242;28;19916;-81
2023/03/06 11:01:55;;;;;;;;;;;;;;;;;;5055258;28;19917;-80
2023/03/06 11:04:41;;;;;;;;;;;;;;;;;;5057703;28;19921;-82
2023/03/06 11:07:28;;;;;;;;;;;;;;;;;;5055404;28;19916;-80
2023/03/06 11:10:15;;;;;;;;;;;;;;;;;;5058442;28;19929;-80
2023/03/06 11:13:01;;;;;;;;;;;;;;;;;;5057278;28;19916;-81
2023/03/06 11:15:48;;;;;;;;;;;;;;;;;;5054204;28;19936;-82
2023/03/06 11:18:34;;;;;;;;;;;;;;;;;;5054620;28;19927;-81
2023/03/06 11:21:21;;;;;;;;;;;;;;;;;;5063442;28;19913;-80
2023/03/06 11:24:07;;;;;;;;;;;;;;;;;;5049965;28;20321;-80
2023/03/06 11:26:55;;;;;;;;;;;;;;;;;;5066001;28;19920;-81
2023/03/06 11:29:42;;;;;;;;;;;;;;;;;;5049276;28;19935;-80
2023/03/06 11:32:28;;;;;;;;;;;;;;;;;;5046339;28;20356;-81
2023/03/06 11:35:15;;;;;;;;;;;;;;;;;;5035552;28;19927;-81
2023/03/06 11:38:03;;;;;;;;;;;;;;;;;;5036690;28;19939;-81
2023/03/06 11:40:49;;;;;;;;;;;;;;;;;;5040975;28;19924;-81
2023/03/06 11:43:36;;;;;;;;;;;;;;;;;;5044398;28;19919;-82
2023/03/06 11:46:22;;;;;;;;;;;;;;;;;;5052562;28;19927;-81
2023/03/06 11:49:09;;;;;;;;;;;;;;;;;;5056170;28;19925;-81
2023/03/06 11:51:55;;;;;;;;;;;;;;;;;;5053549;28;19928;-82
2023/03/06 11:54:42;;;;;;;;;;;;;;;;;;5062359;28;19927;-82
2023/03/06 11:57:28;;;;;;;;;;;;;;;;;;5041730;28;20258;-82
2023/03/06 12:00:15;;;;;;;;;;;;;;;;;;5064601;28;19924;-81
2023/03/06 12:03:01;;;;;;;;;;;;;;;;;;5057806;28;19917;-80
2023/03/06 12:05:48;;;;;;;;;;;;;;;;;;5056471;28;19921;-80
2023/03/06 12:08:34;;;;;;;;;;;;;;;;;;5056595;28;20396;-81
2023/03/06 12:11:21;;;;;;;;;;;;;;;;;;5059471;28;19917;-81
2023/03/06 12:14:07;;;;;;;;;;;;;;;;;;5056794;28;19924;-81
2023/03/06 12:16:54;;;;;;;;;;;;;;;;;;5068738;28;19920;-81
2023/03/06 12:19:40;;;;;;;;;;;;;;;;;;5062426;28;19921;-81
2023/03/06 12:22:27;;;;;;;;;;;;;;;;;;5062708;28;20387;-81
2023/03/06 12:25:15;;;;;;;;;;;;;;;;;;5065810;28;19924;-81
2023/03/06 12:28:02;;;;;;;;;;;;;;;;;;5054536;28;19920;-81
2023/03/06 12:30:48;;;;;;;;;;;;;;;;;;5055144;28;19927;-81
2023/03/06 12:33:35;;;;;;;;;;;;;;;;;;5047372;28;19920;-81
2023/03/06 12:36:21;;;;;;;;;;;;;;;;;;5059239;28;20463;-81
2023/03/06 12:39:07;;;;;;;;;;;;;;;;;;5060647;28;19917;-82
2023/03/06 12:41:54;;;;;;;;;;;;;;;;;;5057319;28;19946;-80
2023/03/06 12:44:40;;;;;;;;;;;;;;;;;;5059019;28;20522;-82
2023/03/06 12:47:27;;;;;;;;;;;;;;;;;;5052367;28;19935;-81
2023/03/06 12:50:14;;;;;;;;;;;;;;;;;;5058955;28;19931;-81
2023/03/06 12:53:00;;;;;;;;;;;;;;;;;;5054698;28;19917;-81
2023/03/06 12:55:46;;;;;;;;;;;;;;;;;;5043198;28;19921;-81
2023/03/06 12:58:33;;;;;;;;;;;;;;;;;;5055998;28;19919;-81
2023/03/06 13:01:22;;;;;;;;;;;;;;;;;;5051648;28;19931;-81
2023/03/06 13:04:09;;;;;;;;;;;;;;;;;;5053170;28;19913;-81
2023/03/06 13:06:55;;;;;;;;;;;;;;;;;;5056211;28;19928;-81
2023/03/06 13:09:42;;;;;;;;;;;;;;;;;;5038980;28;19925;-82
2023/03/06 13:12:29;;;;;;;;;;;;;;;;;;5053214;28;19916;-82
2023/03/06 13:15:15;;;;;;;;;;;;;;;;;;5052024;28;19929;-82
2023/03/06 13:18:02;;;;;;;;;;;;;;;;;;5059846;28;19924;-81
2023/03/06 13:20:48;;;;;;;;;;;;;;;;;;5053561;28;19916;-82
2023/03/06 13:23:35;;;;;;;;;;;;;;;;;;5051852;28;19925;-83
2023/03/06 13:26:22;;;;;;;;;;;;;;;;;;5064425;28;19916;-82
2023/03/06 13:29:08;;;;;;;;;;;;;;;;;;5052975;28;20292;-82
2023/03/06 13:31:56;;;;;;;;;;;;;;;;;;5048950;28;19921;-80
2023/03/06 13:34:45;;;;;;;;;;;;;;;;;;5060496;28;20439;-82
2023/03/06 13:37:32;;;;;;;;;;;;;;;;;;5056202;28;19920;-82
2023/03/06 13:40:18;;;;;;;;;;;;;;;;;;5056048;28;19928;-82
2023/03/06 13:43:05;;;;;;;;;;;;;;;;;;5057344;28;19924;-82
2023/03/06 13:45:51;;;;;;;;;;;;;;;;;;5061951;28;20899;-81
2023/03/06 13:48:38;;;;;;;;;;;;;;;;;;5054720;28;19935;-81
2023/03/06 13:51:24;;;;;;;;;;;;;;;;;;5050910;28;19927;-81
2023/03/06 13:54:11;;;;;;;;;;;;;;;;;;5055562;28;19921;-80
2023/03/06 13:56:57;;;;;;;;;;;;;;;;;;5064084;28;20292;-80
2023/03/06 13:59:44;;;;;;;;;;;;;;;;;;5069032;28;19921;-80
2023/03/06 14:02:30;;;;;;;;;;;;;;;;;;5049299;28;19921;-80
2023/03/06 14:05:17;;;;;;;;;;;;;;;;;;5032682;28;19921;-81
2023/03/06 14:08:03;;;;;;;;;;;;;;;;;;5060763;28;19935;-81
2023/03/06 14:10:50;;;;;;;;;;;;;;;;;;5059939;28;20443;-81
2023/03/06 14:13:36;;;;;;;;;;;;;;;;;;5061279;28;20054;-81
2023/03/06 14:16:23;;;;;;;;;;;;;;;;;;5066725;28;19944;-79
2023/03/06 14:19:10;;;;;;;;;;;;;;;;;;5061741;28;19917;-80
2023/03/06 14:21:57;;;;;;;;;;;;;;;;;;5053906;28;19920;-79
2023/03/06 14:24:44;;;;;;;;;;;;;;;;;;5065524;28;19917;-80
2023/03/06 14:27:31;;;;;;;;;;;;;;;;;;5039703;28;19920;-81
2023/03/06 14:30:19;;;;;;;;;;;;;;;;;;5063732;28;19925;-80
2023/03/06 14:33:06;;;;;;;;;;;;;;;;;;5064304;28;19920;-81
2023/03/06 14:35:52;;;;;;;;;;;;;;;;;;5036296;28;20280;-81
2023/03/06 14:38:39;;;;;;;;;;;;;;;;;;5043895;28;20347;-81
2023/03/06 14:41:25;;;;;;;;;;;;;;;;;;5067204;28;19927;-81
2023/03/06 14:44:12;;;;;;;;;;;;;;;;;;5047513;28;19928;-81
2023/03/06 14:46:59;;;;;;;;;;;;;;;;;;5037765;28;19967;-80
2023/03/06 14:49:45;;;;;;;;;;;;;;;;;;5035492;28;19933;-80
2023/03/06 14:52:32;;;;;;;;;;;;;;;;;;5054677;28;19923;-80
2023/03/06 14:55:18;;;;;;;;;;;;;;;;;;5068134;28;19919;-81
2023/03/06 14:58:05;;;;;;;;;;;;;;;;;;5036156;28;19932;-81
2023/03/06 15:00:53;;;;;;;;;;;;;;;;;;5042554;28;19917;-81
2023/03/06 15:03:39;;;;;;;;;;;;;;;;;;5059316;28;20304;-81
2023/03/06 15:06:26;;;;;;;;;;;;;;;;;;5054842;28;19916;-81
2023/03/06 15:09:12;;;;;;;;;;;;;;;;;;5046846;28;19925;-81
2023/03/06 15:11:59;;;;;;;;;;;;;;;;;;5042282;28;19920;-81
2023/03/06 15:14:45;;;;;;;;;;;;;;;;;;5045413;28;19930;-81
2023/03/06 15:17:32;;;;;;;;;;;;;;;;;;5053061;28;19924;-81
2023/03/06 15:20:18;;;;;;;;;;;;;;;;;;5067012;28;19916;-82
2023/03/06 15:23:05;;;;;;;;;;;;;;;;;;5046704;28;19920;-81
2023/03/06 15:25:51;;;;;;;;;;;;;;;;;;5058527;28;19921;-81
2023/03/06 15:28:38;;;;;;;;;;;;;;;;;;5053832;28;19931;-81
2023/03/06 15:31:26;;;;;;;;;;;;;;;;;;5057729;28;19924;-82
2023/03/06 15:34:13;;;;;;;;;;;;;;;;;;5055569;28;19917;-81
2023/03/06 15:36:59;;;;;;;;;;;;;;;;;;5054120;28;19920;-81
2023/03/06 15:39:46;;;;;;;;;;;;;;;;;;5060997;28;19928;-81
2023/03/06 15:42:32;;;;;;;;;;;;;;;;;;5057038;28;19927;-82
2023/03/06 15:45:19;;;;;;;;;;;;;;;;;;5051276;28;19916;-82
2023/03/06 15:48:05;;;;;;;;;;;;;;;;;;5039505;28;19928;-82
2023/03/06 15:50:52;;;;;;;;;;;;;;;;;;5046074;28;19924;-81
2023/03/06 15:53:41;;;;;;;;;;;;;;;;;;5018613;28;20375;-87
2023/03/06 15:56:27;;;;;;;;;;;;;;;;;;5039178;28;20276;-79
2023/03/06 15:59:14;;;;;;;;;;;;;;;;;;5043057;28;19917;-79
2023/03/06 16:02:00;;;;;;;;;;;;;;;;;;5055476;28;20427;-80
2023/03/06 16:04:47;;;;;;;;;;;;;;;;;;5053987;28;19916;-76
2023/03/06 16:07:33;;;;;;;;;;;;;;;;;;5050848;28;19920;-77
2023/03/06 16:10:20;;;;;;;;;;;;;;;;;;5058789;28;19929;-77
2023/03/06 16:13:08;;;;;;;;;;;;;;;;;;5039736;28;19913;-77
2023/03/06 16:15:54;;;;;;;;;;;;;;;;;;5057301;28;19928;-75
2023/03/06 16:18:41;;;;;;;;;;;;;;;;;;5053567;28;19944;-77
2023/03/06 16:21:27;;;;;;;;;;;;;;;;;;5057456;28;19920;-81
2023/03/06 16:24:17;;;;;;;;;;;;;;;;;;5065607;28;19940;-82
2023/03/06 16:27:03;;;;;;;;;;;;;;;;;;5065670;28;20295;-82
2023/03/06 16:29:51;;;;;;;;;;;;;;;;;;5048262;28;19928;-83
2023/03/06 16:32:37;;;;;;;;;;;;;;;;;;5059030;28;19932;-81
2023/03/06 16:35:24;;;;;;;;;;;;;;;;;;5057939;28;19923;-81
2023/03/06 16:38:10;;;;;;;;;;;;;;;;;;5056609;28;19951;-81
2023/03/06 16:40:57;;;;;;;;;;;;;;;;;;5062324;28;19927;-81
2023/03/06 16:43:44;;;;;;;;;;;;;;;;;;5064672;28;19912;-82
2023/03/06 16:46:30;;;;;;;;;;;;;;;;;;5033509;28;19925;-82
2023/03/06 16:49:17;;;;;;;;;;;;;;;;;;5054795;28;19932;-81
2023/03/06 16:52:03;;;;;;;;;;;;;;;;;;5059297;28;19924;-82
2023/03/06 16:54:50;;;;;;;;;;;;;;;;;;5061398;28;19923;-82
2023/03/06 16:57:36;;;;;;;;;;;;;;;;;;5055163;28;19927;-82
2023/03/06 17:00:23;;;;;;;;;;;;;;;;;;5057048;28;19916;-82
2023/03/06 17:03:10;;;;;;;;;;;;;;;;;;5063661;28;19954;-81
2023/03/06 17:05:56;;;;;;;;;;;;;;;;;;5074865;28;20398;-81
2023/03/06 17:08:43;;;;;;;;;;;;;;;;;;5068814;28;19925;-81
2023/03/06 17:11:29;;;;;;;;;;;;;;;;;;5041433;28;19917;-82
2023/03/06 17:14:16;;;;;;;;;;;;;;;;;;5072732;28;19916;-82
2023/03/06 17:17:02;;;;;;;;;;;;;;;;;;5066113;28;19920;-82
2023/03/06 17:19:49;;;;;;;;;;;;;;;;;;5045329;28;19936;-82
2023/03/06 17:22:35;;;;;;;;;;;;;;;;;;5048547;28;19927;-82
2023/03/06 17:25:22;;;;;;;;;;;;;;;;;;5060287;28;19916;-82
2023/03/06 17:28:09;;;;;;;;;;;;;;;;;;5050332;28;19917;-82
2023/03/06 17:30:56;;;;;;;;;;;;;;;;;;5044266;28;19921;-82
2023/03/06 17:33:42;;;;;;;;;;;;;;;;;;5037556;28;20380;-83
2023/03/06 17:36:29;;;;;;;;;;;;;;;;;;5045152;28;19921;-77
2023/03/06 17:39:15;;;;;;;;;;;;;;;;;;5052110;28;19927;-83
2023/03/06 17:42:02;;;;;;;;;;;;;;;;;;5039456;28;19920;-81
2023/03/06 17:44:49;;;;;;;;;;;;;;;;;;5057407;28;19916;-81
2023/03/06 17:47:36;;;;;;;;;;;;;;;;;;5058722;28;20292;-81
2023/03/06 17:50:22;;;;;;;;;;;;;;;;;;5053790;28;19925;-80
2023/03/06 17:53:09;;;;;;;;;;;;;;;;;;5055652;28;20298;-80
2023/03/06 17:55:58;;;;;;;;;;;;;;;;;;5053418;28;19916;-79
2023/03/06 17:58:45;;;;;;;;;;;;;;;;;;5063497;28;19931;-81
2023/03/06 18:01:31;;;;;;;;;;;;;;;;;;5054690;28;20301;-81
2023/03/06 18:04:18;;;;;;;;;;;;;;;;;;5054525;28;19913;-81
2023/03/06 18:07:04;;;;;;;;;;;;;;;;;;5046795;28;20428;-83
2023/03/06 18:09:51;;;;;;;;;;;;;;;;;;5041384;28;19925;-78
2023/03/06 18:12:37;;;;;;;;;;;;;;;;;;5034386;28;19932;-80
2023/03/06 18:15:24;;;;;;;;;;;;;;;;;;5054292;28;19933;-80
2023/03/06 18:18:10;;;;;;;;;;;;;;;;;;5071221;28;19932;-79
2023/03/06 18:20:56;;;;;;;;;;;;;;;;;;5051943;28;20374;-80
2023/03/06 18:23:43;;;;;;;;;;;;;;;;;;5059208;28;19927;-81
2023/03/06 18:26:29;;;;;;;;;;;;;;;;;;5042657;28;19920;-81
2023/03/06 18:29:16;;;;;;;;;;;;;;;;;;5032140;28;19928;-80
2023/03/06 18:32:03;;;;;;;;;;;;;;;;;;5062532;28;19924;-80
2023/03/06 18:34:49;;;;;;;;;;;;;;;;;;5053887;28;19920;-80
2023/03/06 18:37:36;;;;;;;;;;;;;;;;;;5057796;28;19921;-81
2023/03/06 18:40:22;;;;;;;;;;;;;;;;;;5058508;28;19923;-80
2023/03/06 18:43:09;;;;;;;;;;;;;;;;;;5061041;28;20674;-80
2023/03/06 18:45:55;;;;;;;;;;;;;;;;;;5053819;28;19928;-78
2023/03/06 18:48:41;;;;;;;;;;;;;;;;;;5037219;28;19931;-79
2023/03/06 18:51:28;;;;;;;;;;;;;;;;;;5060039;28;19917;-80
2023/03/06 18:54:14;;;;;;;;;;;;;;;;;;5061326;28;24360;-80
2023/03/06 18:57:01;;;;;;;;;;;;;;;;;;5060932;28;20281;-79